Time;durP1;ratioP1;P1;durP2;ratioP2;P2;SDS_P1;SDS_P2;PMS_P1;PMS_P2;Temp;Humidity;BMP_temperature;BMP_pressure;BME280_temperature;BME280_humidity;BME280_pressure;Samples;Min_cycle;Max_cycle;Signal;HPM_P1;HPM_P2
2023/03/31 00:00:56;;;;;;;77.80;14.35;;;16.40;81.70;;;;;;5045893;28;20124;-56
2023/03/31 00:03:23;;;;;;;81.18;15.02;;;16.40;81.70;;;;;;5062599;28;20124;-57
2023/03/31 00:05:58;;;;;;;83.38;13.40;;;16.40;81.70;;;;;;5062236;28;20026;-57
2023/03/31 00:08:28;;;;;;;69.80;12.88;;;16.40;81.70;;;;;;5061491;28;20442;-57
2023/03/31 00:10:57;;;;;;;74.18;12.85;;;16.30;81.80;;;;;;5062137;28;20025;-57
2023/03/31 00:13:23;;;;;;;72.57;12.10;;;16.40;81.80;;;;;;5062382;28;20036;-57
2023/03/31 00:15:48;;;;;;;65.25;12.65;;;16.30;82.50;;;;;;5062493;28;20093;-57
2023/03/31 00:18:14;;;;;;;68.30;13.18;;;16.30;81.90;;;;;;5079060;28;20037;-57
2023/03/31 00:20:41;;;;;;;54.42;11.90;;;16.30;81.90;;;;;;5047056;28;20029;-57
2023/03/31 00:23:09;;;;;;;68.60;12.20;;;16.30;82.00;;;;;;5061937;28;20029;-57
2023/03/31 00:25:38;;;;;;;70.22;11.50;;;16.30;82.10;;;;;;5046985;28;20048;-57
2023/03/31 00:28:03;;;;;;;63.72;11.70;;;16.20;82.10;;;;;;5047262;28;20033;-57
2023/03/31 00:30:29;;;;;;;63.78;10.70;;;16.20;82.30;;;;;;5079200;28;20033;-57
2023/03/31 00:32:55;;;;;;;49.88;10.23;;;16.20;82.30;;;;;;5046961;28;20427;-57
2023/03/31 00:35:21;;;;;;;38.75;10.55;;;16.20;82.20;;;;;;5046659;28;20048;-57
2023/03/31 00:37:46;;;;;;;49.97;10.75;;;16.20;82.30;;;;;;5078541;28;20037;-57
2023/03/31 00:40:12;;;;;;;63.45;11.07;;;16.20;82.20;;;;;;5045345;28;20028;-57
2023/03/31 00:42:41;;;;;;;55.13;10.68;;;16.20;82.20;;;;;;5046873;28;20030;-57
2023/03/31 00:45:13;;;;;;;51.53;10.52;;;16.20;82.90;;;;;;5078451;28;20458;-57
2023/03/31 00:47:40;;;;;;;65.53;12.02;;;16.10;82.30;;;;;;5045273;28;20083;-57
2023/03/31 00:50:20;;;;;;;48.40;9.95;;;16.10;82.30;;;;;;5061808;28;20022;-57
2023/03/31 00:52:46;;;;;;;50.75;10.27;;;16.10;82.40;;;;;;5029009;28;20052;-57
2023/03/31 00:55:15;;;;;;;52.70;10.88;;;16.10;82.40;;;;;;5061847;28;20470;-57
2023/03/31 00:57:41;;;;;;;52.05;9.82;;;16.10;82.40;;;;;;5061461;28;20068;-57
2023/03/31 01:00:15;;;;;;;50.45;9.40;;;16.00;82.50;;;;;;5045115;28;20025;-58
2023/03/31 01:02:54;;;;;;;44.67;9.63;;;16.10;82.60;;;;;;5045321;28;20044;-57
2023/03/31 01:05:46;;;;;;;49.20;9.88;;;16.00;82.60;;;;;;5044991;28;20049;-57
2023/03/31 01:08:12;;;;;;;56.63;10.90;;;16.00;82.70;;;;;;5027423;28;20025;-58
2023/03/31 01:10:45;;;;;;;45.28;9.45;;;15.90;82.80;;;;;;5061462;28;20052;-57
2023/03/31 01:13:12;;;;;;;34.40;9.20;;;15.90;82.70;;;;;;5044796;28;20029;-57
2023/03/31 01:15:37;;;;;;;41.33;9.18;;;15.90;82.80;;;;;;5044876;28;20099;-57
2023/03/31 01:18:04;;;;;;;34.50;8.73;;;15.90;82.80;;;;;;5044581;28;20077;-57
2023/03/31 01:21:02;;;;;;;35.45;8.52;;;15.90;82.80;;;;;;5044686;28;20446;-57
2023/03/31 01:23:53;;;;;;;48.60;9.50;;;15.90;82.90;;;;;;5045957;28;20109;-57
2023/03/31 01:26:52;;;;;;;34.03;9.57;;;15.90;83.00;;;;;;5045909;28;20025;-57
2023/03/31 01:29:30;;;;;;;44.45;9.40;;;15.80;82.90;;;;;;5077968;28;20037;-57
2023/03/31 01:32:02;;;;;;;36.53;8.77;;;15.80;83.00;;;;;;5045794;28;20082;-58
2023/03/31 01:34:38;;;;;;;32.83;8.05;;;15.80;83.10;;;;;;5044712;28;20108;-57
2023/03/31 01:37:06;;;;;;;33.90;7.57;;;15.80;83.20;;;;;;5044331;28;20040;-57
2023/03/31 01:40:13;;;;;;;37.00;8.30;;;15.80;83.10;;;;;;5045609;28;20064;-57
2023/03/31 01:42:47;;;;;;;50.97;9.30;;;15.80;83.20;;;;;;5044465;28;20109;-57
2023/03/31 01:45:27;;;;;;;36.50;8.25;;;15.80;83.30;;;;;;5044026;28;20073;-57
2023/03/31 01:48:22;;;;;;;34.97;8.57;;;15.70;83.30;;;;;;5044212;28;20034;-57
2023/03/31 01:51:00;;;;;;;31.27;8.60;;;15.70;83.30;;;;;;5043798;28;20045;-57
2023/03/31 01:53:40;;;;;;;31.38;7.35;;;15.70;83.40;;;;;;5044231;28;20102;-57
2023/03/31 01:56:22;;;;;;;35.53;9.00;;;15.70;83.40;;;;;;5044206;28;20033;-57
2023/03/31 01:59:16;;;;;;;35.78;8.32;;;15.70;83.50;;;;;;5027371;28;20434;-57
2023/03/31 02:01:43;;;;;;;29.65;7.60;;;15.60;83.50;;;;;;5043796;28;20052;-57
2023/03/31 02:04:19;;;;;;;23.90;7.40;;;15.60;83.50;;;;;;5043837;28;20043;-57
2023/03/31 02:06:48;;;;;;;34.42;7.72;;;15.60;83.60;;;;;;5043701;28;20362;-57
2023/03/31 02:09:20;;;;;;;31.83;7.72;;;15.60;83.60;;;;;;5044383;28;20493;-57
2023/03/31 02:11:46;;;;;;;25.20;6.75;;;15.60;83.60;;;;;;5060628;28;20045;-57
2023/03/31 02:14:12;;;;;;;28.65;8.00;;;15.60;83.80;;;;;;5044016;28;20052;-57
2023/03/31 02:16:40;;;;;;;30.92;7.63;;;15.60;83.80;;;;;;5027165;28;20037;-57
2023/03/31 02:19:06;;;;;;;32.45;7.75;;;15.60;83.80;;;;;;5043342;28;20033;-57
2023/03/31 02:21:32;;;;;;;30.35;7.50;;;15.60;83.80;;;;;;5027090;28;20056;-57
2023/03/31 02:23:59;;;;;;;27.75;6.50;;;15.60;83.80;;;;;;5043594;28;20089;-57
2023/03/31 02:26:27;;;;;;;27.17;7.30;;;15.60;83.90;;;;;;5043545;28;20033;-57
2023/03/31 02:28:53;;;;;;;26.55;6.47;;;15.50;83.80;;;;;;5043472;28;20128;-57
2023/03/31 02:31:45;;;;;;;28.35;6.72;;;15.50;83.80;;;;;;5043561;28;20025;-57
2023/03/31 02:34:10;;;;;;;23.98;6.90;;;15.50;83.80;;;;;;5043914;28;20033;-57
2023/03/31 02:36:36;;;;;;;28.98;6.75;;;15.50;83.80;;;;;;5043399;28;20480;-57
2023/03/31 02:39:07;;;;;;;25.10;6.80;;;15.50;84.00;;;;;;5043344;28;20033;-57
2023/03/31 02:41:33;;;;;;;19.48;6.03;;;15.40;84.00;;;;;;5043431;28;20045;-57
2023/03/31 02:43:59;;;;;;;26.73;6.53;;;15.40;84.10;;;;;;5026697;28;20035;-57
2023/03/31 02:46:24;;;;;;;21.98;6.32;;;15.40;84.20;;;;;;5043337;28;20038;-57
2023/03/31 02:48:52;;;;;;;23.70;6.35;;;15.40;84.30;;;;;;5043179;28;20029;-57
2023/03/31 02:51:41;;;;;;;27.02;6.70;;;15.40;84.30;;;;;;5043126;28;20041;-58
2023/03/31 02:54:25;;;;;;;26.50;6.47;;;15.30;84.40;;;;;;5043450;28;20543;-57
2023/03/31 02:57:12;;;;;;;29.08;7.32;;;15.30;84.40;;;;;;5043268;28;20113;-57
2023/03/31 03:00:07;;;;;;;28.15;7.05;;;15.30;84.50;;;;;;5044445;28;20085;-57
2023/03/31 03:02:38;;;;;;;26.80;6.22;;;15.30;84.50;;;;;;5043204;28;20125;-57
2023/03/31 03:05:12;;;;;;;29.23;6.10;;;15.30;84.60;;;;;;5043227;28;20036;-57
2023/03/31 03:07:47;;;;;;;22.23;6.00;;;15.20;84.50;;;;;;5059849;28;20093;-57
2023/03/31 03:10:19;;;;;;;21.75;6.47;;;15.20;84.90;;;;;;5060196;28;20022;-57
2023/03/31 03:13:09;;;;;;;25.15;6.82;;;15.20;84.70;;;;;;5044605;28;20036;-57
2023/03/31 03:15:38;;;;;;;19.02;6.30;;;15.20;84.70;;;;;;5044430;28;20036;-57
2023/03/31 03:18:05;;;;;;;17.55;6.32;;;15.20;84.70;;;;;;5042960;28;20030;-57
2023/03/31 03:20:32;;;;;;;29.55;8.63;;;15.20;84.70;;;;;;5026521;28;20022;-57
2023/03/31 03:22:58;;;;;;;20.58;6.65;;;15.20;84.60;;;;;;5042870;28;20030;-57
2023/03/31 03:25:24;;;;;;;21.52;8.20;;;15.20;84.70;;;;;;5043047;28;20093;-57
2023/03/31 03:27:52;;;;;;;25.50;8.80;;;15.20;85.30;;;;;;5042959;28;20025;-57
2023/03/31 03:30:18;;;;;;;23.52;8.80;;;15.20;84.80;;;;;;5060235;28;20088;-57
2023/03/31 03:32:45;;;;;;;18.13;8.25;;;15.10;84.70;;;;;;5046652;28;20401;-57
2023/03/31 03:35:10;;;;;;;20.83;8.95;;;15.10;84.80;;;;;;5063510;28;20033;-57
2023/03/31 03:37:36;;;;;;;32.65;10.48;;;15.10;84.90;;;;;;5046699;28;20103;-57
2023/03/31 03:40:04;;;;;;;38.53;11.98;;;15.10;84.90;;;;;;5048032;28;20458;-57
2023/03/31 03:42:30;;;;;;;28.75;11.23;;;15.10;84.90;;;;;;5048010;28;20057;-57
2023/03/31 03:44:56;;;;;;;33.00;10.95;;;15.00;84.90;;;;;;5079750;28;20099;-57
2023/03/31 03:47:21;;;;;;;42.22;11.68;;;15.00;85.00;;;;;;5079760;28;20040;-57
2023/03/31 03:49:48;;;;;;;38.72;11.52;;;15.00;85.00;;;;;;5079716;28;20040;-56
2023/03/31 03:52:14;;;;;;;59.05;13.10;;;15.00;85.10;;;;;;5047582;28;20042;-55
2023/03/31 03:54:39;;;;;;;61.53;13.25;;;15.00;85.20;;;;;;5079494;28;20041;-55
2023/03/31 03:57:06;;;;;;;54.00;12.20;;;15.00;85.30;;;;;;5079320;28;20056;-55
2023/03/31 03:59:32;;;;;;;55.17;11.60;;;15.00;85.40;;;;;;5047333;28;20049;-55
2023/03/31 04:01:58;;;;;;;33.53;11.68;;;15.00;85.50;;;;;;5079433;28;20067;-55
2023/03/31 04:04:23;;;;;;;45.75;12.48;;;15.00;86.10;;;;;;5047270;28;20057;-55
2023/03/31 04:06:49;;;;;;;43.45;12.45;;;15.00;85.50;;;;;;5079231;28;20017;-55
2023/03/31 04:09:15;;;;;;;42.30;10.82;;;15.00;85.60;;;;;;5079387;28;20028;-55
2023/03/31 04:11:40;;;;;;;41.75;10.98;;;15.00;85.50;;;;;;5079402;28;20093;-55
2023/03/31 04:14:06;;;;;;;42.78;11.15;;;15.00;85.50;;;;;;5047385;28;20026;-56
2023/03/31 04:16:33;;;;;;;47.17;11.18;;;15.00;85.50;;;;;;5047329;28;20088;-55
2023/03/31 04:19:02;;;;;;;41.15;10.93;;;15.00;85.50;;;;;;5078837;28;20033;-55
2023/03/31 04:21:29;;;;;;;41.47;11.25;;;15.00;85.60;;;;;;5078062;28;20026;-56
2023/03/31 04:24:00;;;;;;;32.05;9.35;;;15.00;85.70;;;;;;5045601;28;20033;-55
2023/03/31 04:26:30;;;;;;;48.75;10.57;;;15.00;85.70;;;;;;5045663;28;20089;-55
2023/03/31 04:28:59;;;;;;;24.08;9.80;;;15.00;85.70;;;;;;5078304;28;20029;-55
2023/03/31 04:31:25;;;;;;;31.67;9.50;;;15.00;85.70;;;;;;5045465;28;20025;-55
2023/03/31 04:33:53;;;;;;;23.60;8.68;;;15.00;85.70;;;;;;5046923;28;20038;-55
2023/03/31 04:36:20;;;;;;;40.05;9.70;;;15.00;85.70;;;;;;5046856;28;20022;-55
2023/03/31 04:38:49;;;;;;;40.67;9.85;;;15.00;85.70;;;;;;5045500;28;20036;-55
2023/03/31 04:41:17;;;;;;;35.00;9.10;;;15.00;85.70;;;;;;5045219;28;20501;-55
2023/03/31 04:43:43;;;;;;;25.65;8.88;;;15.00;85.80;;;;;;5045362;28;20091;-55
2023/03/31 04:46:08;;;;;;;36.38;8.75;;;14.90;85.70;;;;;;5046607;28;20064;-56
2023/03/31 04:48:34;;;;;;;24.20;8.63;;;15.00;85.80;;;;;;5045372;28;20048;-55
2023/03/31 04:51:00;;;;;;;30.38;8.13;;;15.00;85.90;;;;;;5045182;28;20029;-55
2023/03/31 04:53:25;;;;;;;28.83;9.23;;;14.90;86.20;;;;;;5045414;28;20138;-56
2023/03/31 04:55:51;;;;;;;22.83;8.55;;;14.90;86.30;;;;;;5045231;28;20033;-56
2023/03/31 04:58:16;;;;;;;34.75;9.07;;;14.90;86.50;;;;;;5045237;28;20151;-56
2023/03/31 05:00:42;;;;;;;30.42;9.60;;;14.90;86.40;;;;;;5044967;28;20033;-56
2023/03/31 05:03:08;;;;;;;32.42;8.05;;;14.90;86.90;;;;;;5046498;28;20060;-56
2023/03/31 05:05:34;;;;;;;23.77;8.25;;;14.90;86.90;;;;;;5046334;28;20037;-56
2023/03/31 05:08:00;;;;;;;28.85;8.60;;;15.00;86.70;;;;;;5045051;28;20051;-55
2023/03/31 05:10:25;;;;;;;31.55;8.80;;;15.00;86.60;;;;;;5045117;28;20094;-55
2023/03/31 05:12:51;;;;;;;22.10;7.85;;;14.90;86.50;;;;;;5028262;28;20096;-56
2023/03/31 05:15:17;;;;;;;28.10;8.45;;;15.00;86.60;;;;;;5044742;28;20032;-56
2023/03/31 05:17:42;;;;;;;33.97;8.70;;;14.90;86.50;;;;;;5046088;28;20036;-56
2023/03/31 05:20:09;;;;;;;24.33;8.00;;;14.90;86.50;;;;;;5044675;28;20056;-56
2023/03/31 05:22:35;;;;;;;27.80;7.95;;;14.90;86.50;;;;;;5046174;28;20044;-56
2023/03/31 05:25:01;;;;;;;25.88;7.72;;;14.90;86.50;;;;;;5045956;28;20025;-55
2023/03/31 05:27:27;;;;;;;22.50;7.82;;;14.90;86.50;;;;;;5061228;28;20036;-56
2023/03/31 05:29:52;;;;;;;29.83;8.63;;;14.90;86.60;;;;;;5045820;28;20104;-55
2023/03/31 05:32:18;;;;;;;32.38;8.13;;;14.90;86.80;;;;;;5046000;28;20355;-56
2023/03/31 05:34:44;;;;;;;25.60;8.18;;;14.90;86.70;;;;;;5044776;28;20089;-56
2023/03/31 05:37:09;;;;;;;18.73;7.95;;;14.90;86.60;;;;;;5044497;28;20041;-56
2023/03/31 05:39:35;;;;;;;25.15;8.50;;;14.80;86.70;;;;;;5045682;28;20040;-55
2023/03/31 05:42:01;;;;;;;22.65;7.57;;;14.80;86.70;;;;;;5045794;28;20057;-56
2023/03/31 05:44:26;;;;;;;22.73;7.28;;;14.80;86.70;;;;;;5044165;28;20036;-56
2023/03/31 05:46:52;;;;;;;22.20;7.45;;;14.90;86.70;;;;;;5044073;28;20022;-57
2023/03/31 05:49:18;;;;;;;22.83;7.07;;;14.80;86.70;;;;;;5044198;28;20087;-57
2023/03/31 05:51:44;;;;;;;19.65;6.82;;;14.80;86.70;;;;;;5043833;28;20096;-57
2023/03/31 05:54:10;;;;;;;28.88;7.18;;;14.80;86.70;;;;;;5044910;28;20079;-57
2023/03/31 05:56:35;;;;;;;17.63;6.68;;;14.80;86.70;;;;;;5045427;28;20059;-57
2023/03/31 05:59:01;;;;;;;21.80;7.47;;;14.80;86.70;;;;;;5045128;28;20068;-57
2023/03/31 06:01:28;;;;;;;23.63;7.53;;;14.80;86.70;;;;;;5077122;28;20041;-57
2023/03/31 06:03:54;;;;;;;24.23;7.15;;;14.80;86.70;;;;;;5043854;28;20041;-56
2023/03/31 06:06:20;;;;;;;19.45;6.40;;;14.80;86.70;;;;;;5043884;28;20034;-57
2023/03/31 06:08:46;;;;;;;14.75;6.95;;;14.80;86.80;;;;;;5043704;28;20026;-56
2023/03/31 06:11:13;;;;;;;16.05;7.00;;;14.70;86.70;;;;;;5043659;28;20052;-56
2023/03/31 06:13:39;;;;;;;14.52;6.38;;;14.80;86.80;;;;;;5043126;28;20041;-57
2023/03/31 06:16:05;;;;;;;17.90;6.78;;;14.70;87.30;;;;;;5042578;28;20029;-57
2023/03/31 06:18:32;;;;;;;14.98;5.70;;;14.80;86.70;;;;;;5026918;28;20117;-57
2023/03/31 06:20:57;;;;;;;20.65;5.25;;;14.70;86.50;;;;;;5043454;28;20115;-56
2023/03/31 06:23:23;;;;;;;17.60;6.20;;;14.70;86.40;;;;;;5043210;28;20128;-57
2023/03/31 06:25:49;;;;;;;21.15;5.88;;;14.80;86.30;;;;;;5043305;28;20054;-57
2023/03/31 06:28:15;;;;;;;18.55;5.57;;;14.70;86.20;;;;;;5026999;28;20030;-57
2023/03/31 06:30:40;;;;;;;16.83;5.90;;;14.70;86.20;;;;;;5043313;28;20335;-57
2023/03/31 06:33:06;;;;;;;23.27;5.75;;;14.70;86.20;;;;;;5010729;28;20026;-57
2023/03/31 06:35:32;;;;;;;14.18;5.53;;;14.70;86.30;;;;;;5040227;28;20029;-57
2023/03/31 06:37:57;;;;;;;15.65;6.00;;;14.70;86.20;;;;;;5038025;28;20351;-57
2023/03/31 06:40:23;;;;;;;13.10;5.53;;;14.70;86.20;;;;;;5025600;28;20518;-57
2023/03/31 06:42:48;;;;;;;13.43;5.35;;;14.70;86.20;;;;;;5042219;28;20080;-57
2023/03/31 06:45:14;;;;;;;17.75;5.15;;;14.70;86.30;;;;;;5042102;28;20489;-57
2023/03/31 06:47:40;;;;;;;17.83;5.88;;;14.70;86.20;;;;;;5042683;28;20065;-57
2023/03/31 06:50:06;;;;;;;17.40;5.38;;;14.70;86.20;;;;;;5042364;28;20052;-57
2023/03/31 06:52:32;;;;;;;21.85;5.53;;;14.70;86.20;;;;;;5041919;28;20056;-57
2023/03/31 06:54:59;;;;;;;17.50;5.35;;;14.70;86.20;;;;;;5041684;28;20033;-57
2023/03/31 06:57:25;;;;;;;10.00;4.78;;;14.70;86.20;;;;;;5043429;28;20025;-57
2023/03/31 06:59:51;;;;;;;15.10;5.50;;;14.80;86.20;;;;;;5041313;28;20432;-57
2023/03/31 07:02:16;;;;;;;16.08;6.13;;;14.80;86.20;;;;;;5040259;28;20081;-57
2023/03/31 07:04:42;;;;;;;19.52;5.00;;;14.80;86.20;;;;;;5030301;28;20486;-57
2023/03/31 07:07:07;;;;;;;27.73;5.65;;;14.80;86.20;;;;;;5045636;28;20435;-56
2023/03/31 07:09:33;;;;;;;21.30;5.38;;;14.80;86.30;;;;;;5046112;28;20179;-57
2023/03/31 07:11:58;;;;;;;26.00;6.03;;;14.80;86.30;;;;;;5046767;28;20033;-57
2023/03/31 07:14:24;;;;;;;24.70;6.28;;;14.70;86.30;;;;;;5046878;28;20105;-57
2023/03/31 07:16:50;;;;;;;32.88;6.47;;;14.70;87.00;;;;;;5046279;28;20033;-57
2023/03/31 07:19:16;;;;;;;35.63;7.00;;;14.70;86.40;;;;;;5048320;28;20029;-57
2023/03/31 07:21:41;;;;;;;31.83;6.25;;;14.70;86.30;;;;;;5044694;28;20401;-57
2023/03/31 07:24:07;;;;;;;33.65;6.45;;;14.70;86.20;;;;;;5046096;28;20048;-56
2023/03/31 07:26:32;;;;;;;30.10;6.95;;;14.70;86.20;;;;;;5043951;28;20037;-57
2023/03/31 07:28:58;;;;;;;32.45;6.63;;;14.70;86.10;;;;;;5047915;28;20028;-57
2023/03/31 07:31:24;;;;;;;40.72;6.80;;;14.70;86.00;;;;;;5046260;28;20036;-57
2023/03/31 07:33:49;;;;;;;43.65;7.63;;;14.70;85.90;;;;;;5045566;28;20034;-57
2023/03/31 07:36:15;;;;;;;42.90;7.13;;;14.80;86.10;;;;;;5044857;28;20128;-57
2023/03/31 07:38:42;;;;;;;48.45;7.75;;;14.80;85.90;;;;;;5046279;28;20033;-57
2023/03/31 07:41:12;;;;;;;47.70;8.23;;;14.80;85.90;;;;;;5079591;28;20441;-56
2023/03/31 07:43:38;;;;;;;45.13;8.32;;;14.80;85.90;;;;;;5067318;28;20037;-57
2023/03/31 07:46:04;;;;;;;43.13;7.63;;;14.80;85.90;;;;;;5065672;28;20095;-57
2023/03/31 07:48:30;;;;;;;45.25;8.50;;;14.80;85.80;;;;;;5050209;28;20418;-57
2023/03/31 07:50:55;;;;;;;49.53;8.80;;;14.80;85.70;;;;;;5048365;28;20382;-57
2023/03/31 07:53:21;;;;;;;60.97;8.90;;;14.90;85.70;;;;;;5051396;28;20118;-57
2023/03/31 07:55:47;;;;;;;52.53;7.72;;;14.90;85.70;;;;;;5041671;28;20026;-57
2023/03/31 07:58:13;;;;;;;51.30;9.73;;;14.90;86.30;;;;;;5041939;28;20026;-56
2023/03/31 08:00:38;;;;;;;78.80;12.52;;;15.00;85.80;;;;;;5038831;28;20465;-56
2023/03/31 08:03:04;;;;;;;79.53;10.63;;;15.00;85.80;;;;;;5046115;28;20063;-55
2023/03/31 08:05:30;;;;;;;69.82;11.15;;;15.00;85.80;;;;;;5045767;28;20021;-57
2023/03/31 08:07:55;;;;;;;87.85;12.77;;;15.00;85.80;;;;;;5036272;28;20030;-57
2023/03/31 08:10:23;;;;;;;90.18;13.52;;;15.00;85.80;;;;;;5046694;28;20089;-56
2023/03/31 08:12:49;;;;;;;104.05;13.80;;;15.00;86.00;;;;;;5054629;28;20086;-56
2023/03/31 08:15:15;;;;;;;80.15;10.95;;;15.00;86.10;;;;;;5044826;28;20104;-57
2023/03/31 08:17:40;;;;;;;107.30;13.05;;;15.10;86.00;;;;;;5045619;28;20036;-57
2023/03/31 08:20:07;;;;;;;111.13;14.50;;;15.10;85.90;;;;;;5030717;28;20442;-57
2023/03/31 08:22:32;;;;;;;106.38;14.07;;;15.10;86.00;;;;;;5062103;28;20041;-57
2023/03/31 08:24:58;;;;;;;136.27;17.20;;;15.10;86.20;;;;;;5043005;28;20327;-57
2023/03/31 08:27:24;;;;;;;108.03;14.48;;;15.10;86.30;;;;;;5043503;28;20026;-56
2023/03/31 08:29:50;;;;;;;95.97;14.43;;;15.20;86.30;;;;;;5037505;28;20037;-57
2023/03/31 08:32:16;;;;;;;91.35;14.35;;;15.20;86.30;;;;;;5039775;28;20021;-57
2023/03/31 08:34:41;;;;;;;120.25;14.43;;;15.20;86.30;;;;;;5044819;28;20034;-57
2023/03/31 08:37:08;;;;;;;115.65;16.52;;;15.20;86.20;;;;;;5044989;28;20473;-57
2023/03/31 08:39:36;;;;;;;122.25;16.38;;;15.20;86.30;;;;;;5043543;28;20037;-57
2023/03/31 08:42:48;;;;;;;119.47;16.77;;;15.30;86.40;;;;;;5042578;28;20029;-57
2023/03/31 08:45:17;;;;;;;100.05;14.60;;;15.30;86.40;;;;;;5032196;28;20041;-57
2023/03/31 08:47:42;;;;;;;83.88;12.35;;;15.40;86.50;;;;;;5042759;28;20172;-57
2023/03/31 08:50:16;;;;;;;82.85;13.70;;;15.40;85.90;;;;;;5024078;28;20052;-57
2023/03/31 08:52:46;;;;;;;110.63;16.63;;;15.40;85.90;;;;;;5025564;28;20064;-57
2023/03/31 08:55:35;;;;;;;121.53;16.75;;;15.40;85.90;;;;;;5055435;28;20025;-57
2023/03/31 08:58:07;;;;;;;113.07;15.38;;;15.40;86.20;;;;;;5042147;28;20125;-57
2023/03/31 09:00:52;;;;;;;117.53;15.73;;;15.50;86.10;;;;;;5019278;28;20034;-57
2023/03/31 09:03:26;;;;;;;131.20;19.13;;;15.50;85.80;;;;;;5027770;28;20033;-57
2023/03/31 09:05:57;;;;;;;129.27;17.98;;;15.50;85.90;;;;;;5055782;28;20021;-56
2023/03/31 09:08:33;;;;;;;75.75;12.13;;;15.50;85.90;;;;;;5051454;28;20044;-57
2023/03/31 09:11:10;;;;;;;;;;;15.60;85.90;;;;;;5044049;28;20041;-56
2023/03/31 09:14:10;;;;;;;150.57;20.75;;;15.60;85.70;;;;;;5074241;28;20166;-57
2023/03/31 09:17:14;;;;;;;141.02;19.05;;;15.60;85.80;;;;;;5049279;28;20041;-57
2023/03/31 09:19:42;;;;;;;126.75;16.75;;;15.70;86.00;;;;;;5031811;28;20077;-57
2023/03/31 09:22:13;;;;;;;95.30;14.20;;;15.70;85.90;;;;;;5056246;28;20083;-57
2023/03/31 09:25:11;;;;;;;93.30;13.20;;;15.70;85.60;;;;;;5025672;28;20068;-57
2023/03/31 09:27:37;;;;;;;125.57;16.35;;;15.70;85.70;;;;;;5035774;28;20037;-57
2023/03/31 09:30:20;;;;;;;119.93;15.98;;;15.70;85.80;;;;;;5052152;28;20029;-57
2023/03/31 09:32:47;;;;;;;79.78;12.82;;;15.80;85.90;;;;;;5039511;28;20026;-57
2023/03/31 09:35:26;;;;;;;95.10;14.25;;;15.80;85.80;;;;;;5054477;28;20032;-57
2023/03/31 09:37:52;;;;;;;128.32;15.93;;;15.80;85.80;;;;;;5066249;28;20424;-57
2023/03/31 09:40:20;;;;;;;95.47;14.60;;;15.80;85.90;;;;;;5051661;28;20043;-57
2023/03/31 09:43:08;;;;;;;116.63;14.70;;;15.90;85.90;;;;;;5014494;28;20044;-57
2023/03/31 09:45:33;;;;;;;153.98;19.50;;;15.90;86.00;;;;;;5069653;28;20160;-57
2023/03/31 09:48:10;;;;;;;169.45;21.33;;;16.00;86.40;;;;;;5035817;28;20029;-57
2023/03/31 09:50:45;;;;;;;145.40;20.85;;;16.10;86.50;;;;;;5054191;28;20033;-57
2023/03/31 09:53:22;;;;;;;124.97;18.77;;;16.00;86.40;;;;;;5053748;28;20127;-57
2023/03/31 09:55:51;;;;;;;142.95;19.15;;;16.10;85.80;;;;;;5054184;28;20055;-58
2023/03/31 09:58:17;;;;;;;142.32;16.95;;;16.10;85.90;;;;;;5052932;28;20059;-57
2023/03/31 10:00:56;;;;;;;152.18;18.60;;;16.10;85.80;;;;;;5039761;28;20033;-57
2023/03/31 10:03:22;;;;;;;129.10;14.88;;;16.20;85.70;;;;;;5051795;28;20033;-57
2023/03/31 10:05:51;;;;;;;108.88;14.00;;;16.20;85.30;;;;;;5040254;28;20064;-57
2023/03/31 10:08:26;;;;;;;124.78;16.52;;;16.20;85.00;;;;;;5036013;28;20040;-57
2023/03/31 10:10:56;;;;;;;119.38;15.40;;;16.20;85.40;;;;;;5037903;28;20112;-57
2023/03/31 10:13:28;;;;;;;121.68;14.98;;;16.30;85.40;;;;;;5040960;28;20064;-57
2023/03/31 10:15:54;;;;;;;159.70;20.25;;;16.30;85.10;;;;;;5038988;28;20055;-57
2023/03/31 10:18:20;;;;;;;147.38;18.13;;;16.30;85.20;;;;;;5027172;28;20026;-57
2023/03/31 10:20:50;;;;;;;142.07;20.27;;;16.40;85.30;;;;;;5037765;28;20052;-57
2023/03/31 10:23:22;;;;;;;126.13;16.40;;;16.40;85.20;;;;;;5054039;28;21470;-57
2023/03/31 10:25:48;;;;;;;119.05;17.92;;;16.50;85.10;;;;;;5036794;28;20040;-57
2023/03/31 10:28:15;;;;;;;125.78;15.20;;;16.50;85.10;;;;;;5022733;28;20026;-57
2023/03/31 10:30:41;;;;;;;85.55;12.30;;;16.60;85.10;;;;;;5035622;28;20021;-57
2023/03/31 10:33:12;;;;;;;108.10;14.45;;;16.60;84.80;;;;;;5031579;28;20044;-57
2023/03/31 10:35:37;;;;;;;94.03;12.02;;;16.60;84.70;;;;;;5039128;28;20076;-57
2023/03/31 10:38:10;;;;;;;106.15;14.43;;;16.70;84.10;;;;;;5053554;28;20025;-57
2023/03/31 10:40:36;;;;;;;97.90;13.77;;;16.70;84.20;;;;;;5053703;28;20343;-57
2023/03/31 10:43:16;;;;;;;96.82;12.95;;;16.70;84.20;;;;;;5054754;28;20040;-57
2023/03/31 10:45:48;;;;;;;105.63;15.07;;;16.70;84.10;;;;;;5072695;28;20033;-57
2023/03/31 10:48:25;;;;;;;150.95;16.88;;;16.70;84.20;;;;;;5054508;28;20032;-57
2023/03/31 10:50:51;;;;;;;147.00;16.95;;;16.80;84.50;;;;;;5068774;28;20029;-57
2023/03/31 10:53:17;;;;;;;119.05;13.65;;;16.70;84.60;;;;;;5056151;28;20040;-57
2023/03/31 10:55:53;;;;;;;118.03;13.82;;;16.80;84.30;;;;;;5041284;28;20331;-57
2023/03/31 10:58:35;;;;;;;159.18;16.98;;;16.70;84.30;;;;;;5030260;28;20090;-57
2023/03/31 11:01:04;;;;;;;124.95;15.48;;;16.80;84.60;;;;;;5037661;28;20037;-57
2023/03/31 11:03:39;;;;;;;314.75;32.28;;;16.80;85.10;;;;;;5036791;28;20079;-56
2023/03/31 11:06:16;;;;;;;153.02;17.63;;;16.70;85.20;;;;;;5041519;28;20078;-59
2023/03/31 11:09:08;;;;;;;137.90;16.65;;;16.70;84.60;;;;;;5041034;28;20034;-58
2023/03/31 11:11:46;;;;;;;153.60;17.60;;;16.70;84.80;;;;;;5057862;28;20033;-58
2023/03/31 11:14:21;;;;;;;138.32;18.00;;;16.70;85.30;;;;;;5041852;28;20037;-58
2023/03/31 11:16:55;;;;;;;326.47;38.10;;;16.70;85.40;;;;;;5040553;28;20112;-58
2023/03/31 11:19:29;;;;;;;309.65;38.20;;;16.80;85.80;;;;;;5041111;28;20034;-58
2023/03/31 11:22:06;;;;;;;181.00;20.98;;;16.80;86.30;;;;;;5022560;28;20034;-58
2023/03/31 11:25:16;;;;;;;170.02;19.98;;;16.80;86.40;;;;;;5038639;28;20049;-57
2023/03/31 11:28:20;;;;;;;169.10;19.58;;;16.80;86.10;;;;;;5037158;28;20120;-58
2023/03/31 11:31:07;;;;;;;185.13;20.25;;;16.80;85.60;;;;;;5042833;28;20045;-55
2023/03/31 11:33:51;;;;;;;174.52;20.25;;;16.80;85.60;;;;;;5027374;28;20029;-55
2023/03/31 11:36:30;;;;;;;129.95;16.20;;;16.80;85.70;;;;;;5040505;28;20014;-56
2023/03/31 11:38:55;;;;;;;124.40;14.60;;;16.80;85.30;;;;;;5041938;28;20025;-55
2023/03/31 11:41:27;;;;;;;120.45;15.75;;;16.80;84.50;;;;;;5041600;28;20449;-55
2023/03/31 11:43:54;;;;;;;176.65;18.92;;;16.70;84.00;;;;;;5042078;28;20030;-56
2023/03/31 11:46:43;;;;;;;139.25;16.88;;;16.80;84.10;;;;;;5025618;28;20426;-56
2023/03/31 11:49:22;;;;;;;151.45;18.13;;;16.80;83.80;;;;;;5039798;28;20055;-56
2023/03/31 11:51:52;;;;;;;158.40;18.50;;;16.80;84.10;;;;;;5021842;28;20037;-56
2023/03/31 11:54:23;;;;;;;207.98;20.38;;;16.80;84.00;;;;;;5055240;28;20069;-56
2023/03/31 11:56:48;;;;;;;169.98;21.33;;;16.80;83.60;;;;;;5029472;28;20037;-56
2023/03/31 11:59:15;;;;;;;131.73;15.98;;;16.90;84.30;;;;;;5028020;28;20044;-56
2023/03/31 12:01:46;;;;;;;127.18;16.85;;;16.90;83.60;;;;;;5051975;28;20033;-56
2023/03/31 12:04:15;;;;;;;102.53;14.63;;;16.90;82.70;;;;;;5042963;28;20033;-56
2023/03/31 12:06:41;;;;;;;142.98;17.15;;;16.90;82.70;;;;;;5055051;28;20054;-56
2023/03/31 12:09:30;;;;;;;160.48;17.55;;;16.90;82.30;;;;;;5045288;28;20029;-55
2023/03/31 12:11:58;;;;;;;168.13;19.88;;;16.80;82.00;;;;;;5043336;28;20083;-55
2023/03/31 12:14:32;;;;;;;193.45;22.95;;;16.80;82.70;;;;;;5043885;28;20124;-55
2023/03/31 12:17:25;;;;;;;190.10;22.15;;;16.90;83.40;;;;;;5025850;28;20029;-55
2023/03/31 12:20:05;;;;;;;183.32;20.52;;;16.90;83.60;;;;;;5045048;28;20116;-54
2023/03/31 12:22:39;;;;;;;171.18;18.25;;;16.90;82.90;;;;;;5041683;28;20052;-55
2023/03/31 12:25:07;;;;;;;132.65;16.00;;;16.90;81.20;;;;;;5043330;28;20038;-55
2023/03/31 12:27:40;;;;;;;122.00;14.70;;;16.70;80.30;;;;;;5016530;28;20030;-55
2023/03/31 12:30:09;;;;;;;134.10;16.48;;;16.60;80.50;;;;;;5027851;28;20049;-55
2023/03/31 12:32:54;;;;;;;180.57;20.00;;;16.60;80.90;;;;;;5044915;28;20033;-55
2023/03/31 12:35:48;;;;;;;138.20;16.88;;;16.50;83.00;;;;;;5041850;28;20057;-55
2023/03/31 12:38:23;;;;;;;216.80;24.73;;;16.50;81.70;;;;;;5044709;28;20487;-55
2023/03/31 12:40:55;;;;;;;;;;;16.60;83.00;;;;;;5027490;28;20134;-55
2023/03/31 12:43:23;;;;;;;179.85;20.67;;;16.60;83.50;;;;;;5042885;28;20014;-55
2023/03/31 12:46:19;;;;;;;246.80;26.67;;;16.70;83.40;;;;;;5044956;28;20025;-55
2023/03/31 12:49:09;;;;;;;229.88;24.15;;;16.70;84.00;;;;;;5044006;28;20049;-55